Time;durP1;ratioP1;P1;durP2;ratioP2;P2;SDS_P1;SDS_P2;PMS_P1;PMS_P2;Temp;Humidity;BMP_temperature;BMP_pressure;BME280_temperature;BME280_humidity;BME280_pressure;Samples;Min_cycle;Max_cycle;Signal;HPM_P1;HPM_P2
2022/03/21 00:01:45;;;;;;;18.65;9.60;;;;;;;;;;5052834;28;20098;-87
2022/03/21 00:04:13;;;;;;;16.83;8.68;;;;;;;;;;5051583;28;20564;-87
2022/03/21 00:06:42;;;;;;;17.92;8.27;;;;;;;;;;5052245;28;20048;-87
2022/03/21 00:09:10;;;;;;;21.33;7.90;;;;;;;;;;5057987;28;20045;-87
2022/03/21 00:11:40;;;;;;;18.70;7.95;;;;;;;;;;5053246;28;20068;-87
2022/03/21 00:14:10;;;;;;;15.93;6.70;;;;;;;;;;5054009;28;20072;-87
2022/03/21 00:16:39;;;;;;;14.57;6.95;;;;;;;;;;5051918;28;20083;-87
2022/03/21 00:19:07;;;;;;;17.38;6.97;;;;;;;;;;5051594;28;20057;-87
2022/03/21 00:21:36;;;;;;;15.55;6.70;;;;;;;;;;5053223;28;20436;-87
2022/03/21 00:24:05;;;;;;;13.77;7.13;;;;;;;;;;5052186;28;20068;-87
2022/03/21 00:26:34;;;;;;;14.68;6.85;;;;;;;;;;5060087;28;20072;-87
2022/03/21 00:29:03;;;;;;;14.45;7.15;;;;;;;;;;5057892;28;20044;-87
2022/03/21 00:31:32;;;;;;;10.55;6.13;;;;;;;;;;5052752;28;20084;-87
2022/03/21 00:34:01;;;;;;;14.70;6.53;;;;;;;;;;5052291;28;20385;-87
2022/03/21 00:36:29;;;;;;;14.48;6.30;;;;;;;;;;5052505;28;20448;-87
2022/03/21 00:39:14;;;;;;;;;;;;;;;;;;5055344;28;20060;-87
2022/03/21 00:41:44;;;;;;;12.68;5.65;;;;;;;;;;5046936;28;19920;-87
2022/03/21 00:44:15;;;;;;;15.13;6.03;;;;;;;;;;5051209;28;20072;-87
2022/03/21 00:46:43;;;;;;;12.07;5.90;;;;;;;;;;5052065;28;20103;-87
2022/03/21 00:49:13;;;;;;;12.95;6.43;;;;;;;;;;5047655;28;20049;-87
2022/03/21 00:51:41;;;;;;;16.25;6.75;;;;;;;;;;5050805;28;20049;-87
2022/03/21 00:54:10;;;;;;;15.82;5.57;;;;;;;;;;5050658;28;20044;-87
2022/03/21 00:56:38;;;;;;;15.73;6.32;;;;;;;;;;5052444;28;20076;-87
2022/03/21 00:59:07;;;;;;;16.80;6.07;;;;;;;;;;5051075;28;20037;-87
2022/03/21 01:01:37;;;;;;;15.18;6.22;;;;;;;;;;5051322;28;20053;-87
2022/03/21 01:04:05;;;;;;;15.98;6.82;;;;;;;;;;5051354;28;20060;-87
2022/03/21 01:06:35;;;;;;;12.38;6.10;;;;;;;;;;5057247;28;20072;-87
2022/03/21 01:09:04;;;;;;;13.45;6.40;;;;;;;;;;5045688;28;20049;-87
2022/03/21 01:11:32;;;;;;;14.98;6.65;;;;;;;;;;5054034;28;20048;-87
2022/03/21 01:14:01;;;;;;;15.63;6.78;;;;;;;;;;5049900;28;20609;-87
2022/03/21 01:16:29;;;;;;;14.52;6.90;;;;;;;;;;5051222;28;20498;-87
2022/03/21 01:18:59;;;;;;;13.00;6.82;;;;;;;;;;5051144;28;20169;-87
2022/03/21 01:21:27;;;;;;;14.43;6.40;;;;;;;;;;5048950;28;20049;-87
2022/03/21 01:23:55;;;;;;;15.30;6.82;;;;;;;;;;5044742;28;20193;-88
2022/03/21 01:26:24;;;;;;;16.80;6.45;;;;;;;;;;5051417;28;20049;-87
2022/03/21 01:28:52;;;;;;;15.55;6.18;;;;;;;;;;5051030;28;20049;-87
2022/03/21 01:31:20;;;;;;;15.13;6.18;;;;;;;;;;5051365;28;20532;-87
2022/03/21 01:33:49;;;;;;;12.05;6.13;;;;;;;;;;5049524;28;20081;-87
2022/03/21 01:36:19;;;;;;;12.07;5.75;;;;;;;;;;5052747;28;20503;-87
2022/03/21 01:38:47;;;;;;;13.63;6.38;;;;;;;;;;5057815;28;20262;-87
2022/03/21 01:41:16;;;;;;;12.30;6.22;;;;;;;;;;5038757;28;20488;-87
2022/03/21 01:43:57;;;;;;;16.52;6.60;;;;;;;;;;5048584;28;20160;-87
2022/03/21 01:46:26;;;;;;;13.90;5.93;;;;;;;;;;5050260;28;20167;-87
2022/03/21 01:48:56;;;;;;;11.02;5.60;;;;;;;;;;5049199;28;20511;-87
2022/03/21 01:51:26;;;;;;;12.00;6.03;;;;;;;;;;5050092;28;20140;-87
2022/03/21 01:56:41;;;;;;;13.18;5.95;;;;;;;;;;5050405;28;20576;-87
2022/03/21 01:59:10;;;;;;;10.70;5.50;;;;;;;;;;5053790;28;20060;-87
2022/03/21 02:01:39;;;;;;;13.10;6.40;;;;;;;;;;5052114;28;20053;-87
2022/03/21 02:04:08;;;;;;;17.77;6.72;;;;;;;;;;5050257;28;20076;-87
2022/03/21 02:06:38;;;;;;;15.63;6.30;;;;;;;;;;5054992;28;20480;-87
2022/03/21 02:09:07;;;;;;;11.43;6.78;;;;;;;;;;5047519;28;20168;-87
2022/03/21 02:11:36;;;;;;;11.70;6.07;;;;;;;;;;5049955;28;20076;-87
2022/03/21 02:14:05;;;;;;;12.27;6.00;;;;;;;;;;5049016;28;20077;-87
2022/03/21 02:16:34;;;;;;;17.20;7.00;;;;;;;;;;5049861;28;20079;-87
2022/03/21 02:19:06;;;;;;;14.00;6.63;;;;;;;;;;5049750;28;20047;-87
2022/03/21 02:21:44;;;;;;;10.23;5.95;;;;;;;;;;5049752;28;20048;-87
2022/03/21 02:24:19;;;;;;;16.30;6.05;;;;;;;;;;5048601;28;20136;-87
2022/03/21 02:26:49;;;;;;;15.15;5.95;;;;;;;;;;5049867;28;20540;-87
2022/03/21 02:29:18;;;;;;;16.48;6.18;;;;;;;;;;5045138;28;20056;-87
2022/03/21 02:31:46;;;;;;;18.38;6.40;;;;;;;;;;5050217;28;20154;-87
2022/03/21 02:34:15;;;;;;;15.90;6.60;;;;;;;;;;5053316;28;20132;-87
2022/03/21 02:36:44;;;;;;;15.38;6.13;;;;;;;;;;5053919;28;20072;-87
2022/03/21 02:39:13;;;;;;;12.93;6.60;;;;;;;;;;5053972;28;20084;-87
2022/03/21 02:41:41;;;;;;;14.23;6.13;;;;;;;;;;5053698;28;20080;-87
2022/03/21 02:44:11;;;;;;;11.95;5.22;;;;;;;;;;5051792;28;20462;-87
2022/03/21 02:46:39;;;;;;;17.63;6.30;;;;;;;;;;5046471;28;20053;-87
2022/03/21 02:49:08;;;;;;;15.88;6.65;;;;;;;;;;5038122;28;20529;-87
2022/03/21 02:51:38;;;;;;;12.82;5.60;;;;;;;;;;5047548;28;20370;-87
2022/03/21 02:54:06;;;;;;;12.40;5.82;;;;;;;;;;5054171;28;20131;-87
2022/03/21 02:56:35;;;;;;;16.90;6.78;;;;;;;;;;5053511;28;20049;-87
2022/03/21 02:59:04;;;;;;;17.52;6.60;;;;;;;;;;5052426;28;20059;-87
2022/03/21 03:01:34;;;;;;;13.80;5.88;;;;;;;;;;5055272;28;20532;-87
2022/03/21 03:04:02;;;;;;;14.52;6.20;;;;;;;;;;5052662;28;20052;-87
2022/03/21 03:06:30;;;;;;;13.20;6.38;;;;;;;;;;5053329;28;20044;-87
2022/03/21 03:08:59;;;;;;;15.18;6.75;;;;;;;;;;5061660;28;20126;-87
2022/03/21 03:11:27;;;;;;;18.42;6.53;;;;;;;;;;5052898;28;20075;-87
2022/03/21 03:13:55;;;;;;;16.65;6.32;;;;;;;;;;5054068;28;20080;-87
2022/03/21 03:16:24;;;;;;;12.27;5.97;;;;;;;;;;5053182;28;20072;-87
2022/03/21 03:18:53;;;;;;;14.15;6.43;;;;;;;;;;5051487;28;20083;-87
2022/03/21 03:21:24;;;;;;;13.38;6.07;;;;;;;;;;5036248;28;20049;-87
2022/03/21 03:23:53;;;;;;;17.63;6.80;;;;;;;;;;5048571;28;20071;-87
2022/03/21 03:26:21;;;;;;;13.18;5.72;;;;;;;;;;5051424;28;20556;-87
2022/03/21 03:28:49;;;;;;;13.43;5.60;;;;;;;;;;5053104;28;20087;-87
2022/03/21 03:31:19;;;;;;;15.63;6.47;;;;;;;;;;5053502;28;20076;-87
2022/03/21 03:33:48;;;;;;;17.33;6.22;;;;;;;;;;5059426;28;20079;-88
2022/03/21 03:36:18;;;;;;;14.30;6.45;;;;;;;;;;5050719;28;20136;-87
2022/03/21 03:38:47;;;;;;;13.07;6.13;;;;;;;;;;5051376;28;20095;-87
2022/03/21 03:41:16;;;;;;;12.13;5.30;;;;;;;;;;5049624;28;20141;-87
2022/03/21 03:43:45;;;;;;;13.35;5.97;;;;;;;;;;5048844;28;20045;-88
2022/03/21 03:46:17;;;;;;;19.15;7.00;;;;;;;;;;5051779;28;20139;-87
2022/03/21 03:48:46;;;;;;;15.23;5.90;;;;;;;;;;5052166;28;20470;-87
2022/03/21 03:51:15;;;;;;;17.38;6.30;;;;;;;;;;5049846;28;20473;-87
2022/03/21 03:53:44;;;;;;;13.02;6.72;;;;;;;;;;5053922;28;20450;-87
2022/03/21 03:56:16;;;;;;;16.75;6.78;;;;;;;;;;5050099;28;20049;-87
2022/03/21 03:58:44;;;;;;;15.68;6.85;;;;;;;;;;5052430;28;20041;-87
2022/03/21 04:01:18;;;;;;;17.35;5.90;;;;;;;;;;5050623;28;20084;-87
2022/03/21 04:03:47;;;;;;;;;;;;;;;;;;5052799;28;20102;-88
2022/03/21 04:06:16;;;;;;;13.80;6.53;;;;;;;;;;5044845;28;19921;-88
2022/03/21 04:08:46;;;;;;;13.02;6.10;;;;;;;;;;5056293;28;20622;-87
2022/03/21 04:11:18;;;;;;;12.05;6.65;;;;;;;;;;5052491;28;20525;-88
2022/03/21 04:13:47;;;;;;;15.15;5.60;;;;;;;;;;5051612;28;20053;-87
2022/03/21 04:16:19;;;;;;;13.95;6.30;;;;;;;;;;5045830;28;20114;-87
2022/03/21 04:18:48;;;;;;;12.25;5.97;;;;;;;;;;5051171;28;20052;-87
2022/03/21 04:21:26;;;;;;;12.80;6.07;;;;;;;;;;5052731;28;20052;-88
2022/03/21 04:23:57;;;;;;;12.77;6.15;;;;;;;;;;5051314;28;20110;-87
2022/03/21 04:26:25;;;;;;;16.10;6.32;;;;;;;;;;5052410;28;20056;-87
2022/03/21 04:28:55;;;;;;;22.75;6.80;;;;;;;;;;5050101;28;20099;-87
2022/03/21 04:31:24;;;;;;;17.70;6.60;;;;;;;;;;5049299;28;20056;-87
2022/03/21 04:33:53;;;;;;;11.80;5.28;;;;;;;;;;5047456;28;20106;-87
2022/03/21 04:36:21;;;;;;;13.15;6.15;;;;;;;;;;5051701;28;20085;-87
2022/03/21 04:38:49;;;;;;;12.70;6.18;;;;;;;;;;5047931;28;20111;-88
2022/03/21 04:41:19;;;;;;;14.65;6.20;;;;;;;;;;5047172;28;20535;-87
2022/03/21 04:43:47;;;;;;;12.93;5.97;;;;;;;;;;5047205;28;20076;-87
2022/03/21 04:46:16;;;;;;;12.55;5.43;;;;;;;;;;5048382;28;20076;-87
2022/03/21 04:48:44;;;;;;;11.82;5.75;;;;;;;;;;5046939;28;20090;-87
2022/03/21 04:51:18;;;;;;;12.05;6.38;;;;;;;;;;5051287;28;20189;-88
2022/03/21 04:53:46;;;;;;;12.88;5.97;;;;;;;;;;5053866;28;20049;-87
2022/03/21 04:56:22;;;;;;;15.95;6.30;;;;;;;;;;5052995;28;20111;-87
2022/03/21 04:58:51;;;;;;;18.45;6.45;;;;;;;;;;5042271;28;20583;-88
2022/03/21 05:01:20;;;;;;;12.43;6.03;;;;;;;;;;5049873;28;20051;-87
2022/03/21 05:03:48;;;;;;;14.18;6.78;;;;;;;;;;5047690;28;20059;-87
2022/03/21 05:06:17;;;;;;;15.25;6.38;;;;;;;;;;5054682;28;20049;-88
2022/03/21 05:08:45;;;;;;;17.33;6.85;;;;;;;;;;5049816;28;20418;-87
2022/03/21 05:11:14;;;;;;;15.15;6.25;;;;;;;;;;5032177;28;20076;-87
2022/03/21 05:13:44;;;;;;;16.33;6.55;;;;;;;;;;5047887;28;20045;-87
2022/03/21 05:16:15;;;;;;;13.95;6.22;;;;;;;;;;5049794;28;20037;-87
2022/03/21 05:18:44;;;;;;;15.02;6.38;;;;;;;;;;5047643;28;20120;-87
2022/03/21 05:21:15;;;;;;;15.55;5.68;;;;;;;;;;5051126;28;20041;-87
2022/03/21 05:32:04;;;;;;;16.23;6.88;;;;;;;;;;5047289;28;20057;-87
2022/03/21 05:37:19;;;;;;;13.75;6.25;;;;;;;;;;5006298;28;1093364;-87
2022/03/21 05:42:33;;;;;;;14.93;6.82;;;;;;;;;;5050518;28;20471;-88
2022/03/21 05:45:03;;;;;;;18.80;7.60;;;;;;;;;;5050658;28;20143;-88
2022/03/21 05:48:50;;;;;;;15.02;6.65;;;;;;;;;;5034389;28;20055;-88
2022/03/21 05:50:20;;;;;;;15.88;6.55;;;;;;;;;;5051501;28;20113;-88
2022/03/21 05:52:48;;;;;;;11.70;5.68;;;;;;;;;;5050038;28;20076;-87
2022/03/21 05:55:17;;;;;;;13.93;6.43;;;;;;;;;;5063689;28;20110;-89
2022/03/21 05:57:45;;;;;;;16.50;6.35;;;;;;;;;;5045124;28;20090;-88
2022/03/21 06:00:22;;;;;;;18.50;6.55;;;;;;;;;;5053687;28;20061;-88
2022/03/21 06:02:51;;;;;;;14.02;6.55;;;;;;;;;;5047554;28;20060;-88
2022/03/21 06:05:20;;;;;;;18.13;6.80;;;;;;;;;;5058619;28;20072;-89
2022/03/21 06:07:49;;;;;;;17.63;7.30;;;;;;;;;;5057438;28;20057;-88
2022/03/21 06:10:18;;;;;;;18.02;7.10;;;;;;;;;;5065461;28;20083;-87
2022/03/21 06:12:46;;;;;;;13.40;6.68;;;;;;;;;;5060745;28;20144;-88
2022/03/21 06:15:20;;;;;;;11.68;6.03;;;;;;;;;;5055000;28;20056;-90
2022/03/21 06:17:49;;;;;;;11.23;5.95;;;;;;;;;;5052400;28;20551;-88
2022/03/21 06:20:18;;;;;;;16.40;6.97;;;;;;;;;;5053054;28;20053;-88
2022/03/21 06:22:46;;;;;;;19.25;7.72;;;;;;;;;;5052832;28;20076;-84
2022/03/21 06:25:15;;;;;;;16.35;8.40;;;;;;;;;;5053086;28;20087;-89
2022/03/21 06:27:43;;;;;;;13.82;6.57;;;;;;;;;;5052917;28;20123;-88
2022/03/21 06:30:12;;;;;;;19.13;7.43;;;;;;;;;;5053193;28;20095;-88
2022/03/21 06:32:42;;;;;;;24.88;6.97;;;;;;;;;;5058272;28;20044;-89
2022/03/21 06:35:11;;;;;;;17.10;7.63;;;;;;;;;;5045183;28;20135;-89
2022/03/21 06:37:40;;;;;;;19.95;6.78;;;;;;;;;;5051148;28;20160;-89
2022/03/21 06:40:09;;;;;;;18.75;6.95;;;;;;;;;;5053524;28;20160;-88
2022/03/21 06:42:38;;;;;;;16.08;7.30;;;;;;;;;;5053876;28;20053;-88
2022/03/21 06:45:07;;;;;;;22.63;8.07;;;;;;;;;;5053324;28;20048;-88
2022/03/21 06:47:35;;;;;;;14.95;7.35;;;;;;;;;;5055140;28;20040;-88
2022/03/21 06:50:06;;;;;;;17.10;7.35;;;;;;;;;;5057193;28;20154;-88
2022/03/21 06:52:38;;;;;;;20.42;6.93;;;;;;;;;;5056594;28;20085;-88
2022/03/21 06:55:07;;;;;;;18.08;7.22;;;;;;;;;;5054857;28;20434;-88
2022/03/21 06:57:38;;;;;;;15.63;7.40;;;;;;;;;;5054839;28;20464;-88
2022/03/21 07:00:07;;;;;;;15.85;7.55;;;;;;;;;;5052477;28;20059;-88
2022/03/21 07:02:36;;;;;;;12.65;6.45;;;;;;;;;;5053224;28;20055;-88
2022/03/21 07:05:08;;;;;;;22.95;8.18;;;;;;;;;;5052911;28;20063;-88
2022/03/21 07:07:37;;;;;;;21.38;7.22;;;;;;;;;;5052900;28;20052;-88
2022/03/21 07:10:06;;;;;;;21.95;7.13;;;;;;;;;;5053783;28;20049;-88
2022/03/21 07:12:35;;;;;;;25.15;8.13;;;;;;;;;;5052847;28;20481;-88
2022/03/21 07:15:04;;;;;;;17.80;7.03;;;;;;;;;;5053793;28;20072;-88
2022/03/21 07:17:33;;;;;;;16.85;7.53;;;;;;;;;;5049778;28;20045;-88
2022/03/21 07:20:01;;;;;;;21.15;6.93;;;;;;;;;;5052127;28;20048;-88
2022/03/21 07:22:31;;;;;;;17.88;6.93;;;;;;;;;;5053173;28;20435;-88
2022/03/21 07:25:06;;;;;;;15.80;6.95;;;;;;;;;;5053466;28;20036;-88
2022/03/21 07:27:34;;;;;;;18.80;7.50;;;;;;;;;;5052692;28;20140;-88
2022/03/21 07:30:03;;;;;;;17.25;6.78;;;;;;;;;;5044350;28;20088;-88
2022/03/21 07:32:31;;;;;;;13.95;6.68;;;;;;;;;;5053005;28;20477;-89
2022/03/21 07:34:59;;;;;;;13.85;6.68;;;;;;;;;;5052771;28;20045;-88
2022/03/21 07:37:29;;;;;;;15.65;7.38;;;;;;;;;;5053315;28;20053;-88
2022/03/21 07:39:59;;;;;;;13.27;7.00;;;;;;;;;;5051871;28;20057;-88
2022/03/21 07:42:28;;;;;;;15.95;7.03;;;;;;;;;;5053124;28;20091;-88
2022/03/21 07:47:42;;;;;;;16.92;7.40;;;;;;;;;;5054571;28;20079;-88
2022/03/21 07:53:14;;;;;;;18.02;7.57;;;;;;;;;;5039611;28;20399;-91
2022/03/21 07:55:44;;;;;;;16.20;7.22;;;;;;;;;;5056029;28;20053;-90
2022/03/21 07:58:13;;;;;;;14.25;7.32;;;;;;;;;;5053957;28;20044;-90
2022/03/21 08:00:43;;;;;;;22.85;8.15;;;;;;;;;;5037619;28;20045;-90
2022/03/21 08:03:14;;;;;;;19.35;7.80;;;;;;;;;;5053452;28;20041;-90
2022/03/21 08:05:47;;;;;;;14.73;7.25;;;;;;;;;;5053143;28;20128;-89
2022/03/21 08:08:20;;;;;;;19.00;7.85;;;;;;;;;;5034970;28;20056;-89
2022/03/21 08:14:10;;;;;;;18.48;7.53;;;;;;;;;;5052935;28;20048;-91
2022/03/21 08:19:56;;;;;;;19.30;8.43;;;;;;;;;;5068880;28;20074;-91
2022/03/21 08:23:08;;;;;;;18.02;7.25;;;;;;;;;;5051650;28;20096;-91
2022/03/21 08:28:41;;;;;;;14.60;7.50;;;;;;;;;;5048783;28;20075;-91
2022/03/21 08:31:13;;;;;;;18.60;8.00;;;;;;;;;;5070812;28;20041;-92
2022/03/21 08:36:36;;;;;;;19.42;8.02;;;;;;;;;;5054030;28;20064;-92
2022/03/21 08:42:17;;;;;;;19.13;8.23;;;;;;;;;;5037969;28;20479;-92
2022/03/21 08:44:55;;;;;;;26.45;8.75;;;;;;;;;;5038893;28;20065;-91
2022/03/21 08:47:26;;;;;;;23.33;8.30;;;;;;;;;;5046588;28;20055;-93
2022/03/21 08:49:57;;;;;;;20.08;8.45;;;;;;;;;;5035719;28;20144;-93
2022/03/21 08:52:26;;;;;;;16.65;8.48;;;;;;;;;;5032922;28;20042;-90
2022/03/21 08:54:56;;;;;;;19.17;9.00;;;;;;;;;;5049090;28;20149;-90
2022/03/21 08:57:26;;;;;;;17.92;7.88;;;;;;;;;;5048960;28;20053;-90
2022/03/21 08:59:55;;;;;;;20.73;7.95;;;;;;;;;;5032655;28;20997;-90
2022/03/21 09:02:27;;;;;;;18.08;8.25;;;;;;;;;;5034519;28;20571;-90
2022/03/21 09:05:20;;;;;;;15.68;7.85;;;;;;;;;;5040420;28;20135;-90
2022/03/21 09:08:08;;;;;;;19.85;7.63;;;;;;;;;;5033644;28;20079;-90
2022/03/21 09:10:38;;;;;;;16.17;7.55;;;;;;;;;;5024983;28;20132;-91
2022/03/21 09:13:07;;;;;;;18.02;8.27;;;;;;;;;;5031369;28;20049;-90
2022/03/21 09:15:45;;;;;;;16.70;8.20;;;;;;;;;;5040617;28;20134;-91
2022/03/21 09:18:16;;;;;;;13.77;7.38;;;;;;;;;;5044110;28;20052;-91
2022/03/21 09:20:47;;;;;;;14.85;7.68;;;;;;;;;;5024163;28;20456;-91
2022/03/21 09:23:30;;;;;;;18.02;8.07;;;;;;;;;;5028952;28;20057;-91
2022/03/21 09:26:00;;;;;;;15.00;8.18;;;;;;;;;;5031923;28;20132;-90
2022/03/21 09:28:44;;;;;;;12.63;7.43;;;;;;;;;;5037562;28;20107;-91
2022/03/21 09:31:14;;;;;;;15.98;8.40;;;;;;;;;;5030805;28;20141;-91
2022/03/21 09:34:04;;;;;;;15.70;7.55;;;;;;;;;;5030772;28;20050;-90
2022/03/21 09:36:54;;;;;;;15.23;7.82;;;;;;;;;;5046732;28;20067;-91
2022/03/21 09:39:53;;;;;;;14.40;8.68;;;;;;;;;;5012679;28;20501;-90
2022/03/21 09:42:41;;;;;;;14.73;7.22;;;;;;;;;;5027840;28;20049;-91
2022/03/21 09:48:16;;;;;;;14.88;7.07;;;;;;;;;;5024264;28;20049;-90
2022/03/21 09:51:14;;;;;;;14.70;8.07;;;;;;;;;;4996182;28;20476;-92
2022/03/21 09:53:42;;;;;;;14.05;7.90;;;;;;;;;;5031053;28;20041;-91
2022/03/21 09:56:31;;;;;;;14.32;7.93;;;;;;;;;;5034165;28;20049;-92
2022/03/21 09:59:19;;;;;;;16.58;8.15;;;;;;;;;;5031949;28;20433;-92
2022/03/21 10:02:08;;;;;;;13.30;7.38;;;;;;;;;;5014232;28;20577;-92
2022/03/21 10:04:55;;;;;;;14.70;7.68;;;;;;;;;;4935759;29;20535;-92
2022/03/21 10:07:38;;;;;;;14.65;7.22;;;;;;;;;;4924371;29;20107;-92
2022/03/21 10:10:09;;;;;;;14.15;7.88;;;;;;;;;;4935693;29;20138;-92
2022/03/21 10:12:38;;;;;;;18.48;8.10;;;;;;;;;;4934850;29;20064;-92
2022/03/21 10:15:09;;;;;;;16.33;7.43;;;;;;;;;;4928349;29;20052;-92
2022/03/21 10:18:05;;;;;;;15.60;8.63;;;;;;;;;;4899202;29;20521;-92
2022/03/21 10:20:54;;;;;;;15.98;7.68;;;;;;;;;;4892196;29;20401;-92
2022/03/21 10:24:02;;;;;;;15.57;8.32;;;;;;;;;;4899037;29;20143;-92
2022/03/21 10:26:32;;;;;;;15.27;7.72;;;;;;;;;;4930060;29;20595;-92
2022/03/21 10:29:02;;;;;;;15.27;7.75;;;;;;;;;;4915242;29;20143;-92
2022/03/21 10:35:00;;;;;;;14.32;7.93;;;;;;;;;;4907117;29;20057;-92
2022/03/21 10:37:47;;;;;;;13.35;7.85;;;;;;;;;;4898110;29;20064;-91
2022/03/21 10:40:25;;;;;;;12.15;7.05;;;;;;;;;;5077003;22;20051;-85
2022/03/21 10:42:55;;;;;;;18.63;8.18;;;;;;;;;;5110078;28;20051;-85
2022/03/21 10:45:24;;;;;;;12.38;7.22;;;;;;;;;;5113410;28;20051;-84
2022/03/21 10:47:53;;;;;;;13.98;7.63;;;;;;;;;;5113158;28;20044;-83
2022/03/21 10:50:29;;;;;;;14.60;7.97;;;;;;;;;;5108232;28;20067;-84
2022/03/21 10:53:04;;;;;;;15.23;7.90;;;;;;;;;;5115566;28;20043;-87
2022/03/21 10:55:34;;;;;;;18.02;8.65;;;;;;;;;;5104269;28;20044;-84
2022/03/21 10:58:02;;;;;;;14.50;7.93;;;;;;;;;;5118170;28;20108;-84
2022/03/21 11:00:31;;;;;;;18.15;8.40;;;;;;;;;;5111819;27;20036;-84
2022/03/21 11:03:05;;;;;;;12.38;7.43;;;;;;;;;;5099300;28;20411;-86
2022/03/21 11:05:37;;;;;;;15.00;8.30;;;;;;;;;;5109621;28;20048;-84
2022/03/21 11:08:06;;;;;;;11.60;7.82;;;;;;;;;;5118354;28;20058;-84
2022/03/21 11:10:36;;;;;;;14.23;8.20;;;;;;;;;;5115744;27;20087;-84
2022/03/21 11:13:05;;;;;;;13.57;8.40;;;;;;;;;;5116781;28;20056;-83
2022/03/21 11:15:35;;;;;;;21.17;10.75;;;;;;;;;;5110505;28;20076;-85
2022/03/21 11:18:03;;;;;;;17.55;8.02;;;;;;;;;;5108450;28;20071;-84
2022/03/21 11:20:32;;;;;;;15.65;8.50;;;;;;;;;;5111949;28;20077;-84
2022/03/21 11:23:01;;;;;;;15.13;7.90;;;;;;;;;;5109714;28;20048;-84
2022/03/21 11:25:31;;;;;;;14.88;8.32;;;;;;;;;;5110331;27;20106;-85
2022/03/21 11:28:20;;;;;;;15.43;8.02;;;;;;;;;;5105351;28;20532;-84
2022/03/21 11:30:58;;;;;;;15.32;9.15;;;;;;;;;;5100657;28;20099;-83
2022/03/21 11:33:34;;;;;;;15.82;7.85;;;;;;;;;;5112938;28;20413;-85
2022/03/21 11:36:03;;;;;;;13.95;8.18;;;;;;;;;;5090183;28;20068;-84
2022/03/21 11:38:32;;;;;;;16.90;8.52;;;;;;;;;;5087952;28;20051;-84
2022/03/21 11:41:21;;;;;;;16.27;8.93;;;;;;;;;;5089193;28;20044;-87
2022/03/21 11:44:14;;;;;;;14.30;8.10;;;;;;;;;;5089454;28;20105;-84
2022/03/21 11:46:47;;;;;;;15.43;8.45;;;;;;;;;;5093048;28;20430;-84
2022/03/21 11:49:34;;;;;;;15.27;7.95;;;;;;;;;;5093848;28;20052;-85
2022/03/21 11:52:03;;;;;;;17.33;7.78;;;;;;;;;;5094091;28;20048;-85
2022/03/21 11:54:32;;;;;;;15.70;8.35;;;;;;;;;;5092399;28;20479;-84
2022/03/21 11:57:05;;;;;;;15.40;8.38;;;;;;;;;;5090049;28;20506;-85
2022/03/21 11:59:52;;;;;;;14.20;8.07;;;;;;;;;;5089392;28;21214;-85
2022/03/21 12:02:41;;;;;;;16.25;8.95;;;;;;;;;;5084381;28;20113;-86
2022/03/21 12:05:11;;;;;;;14.77;8.82;;;;;;;;;;5073082;28;20059;-84
2022/03/21 12:07:41;;;;;;;13.88;8.32;;;;;;;;;;5084720;28;20064;-83
2022/03/21 12:10:10;;;;;;;15.20;8.68;;;;;;;;;;5084893;28;20055;-84
2022/03/21 12:12:54;;;;;;;17.77;8.60;;;;;;;;;;5077980;28;20476;-84
2022/03/21 12:15:30;;;;;;;15.23;9.35;;;;;;;;;;5091956;28;20048;-85
2022/03/21 12:17:59;;;;;;;16.23;8.93;;;;;;;;;;5080243;28;20435;-85
2022/03/21 12:20:45;;;;;;;15.43;8.20;;;;;;;;;;5082653;28;20044;-84
2022/03/21 12:23:18;;;;;;;12.85;8.52;;;;;;;;;;5081676;28;20495;-84
2022/03/21 12:25:50;;;;;;;14.02;7.97;;;;;;;;;;5080956;28;20094;-84
2022/03/21 12:28:20;;;;;;;14.60;8.73;;;;;;;;;;5076970;28;20067;-84
2022/03/21 12:30:49;;;;;;;15.32;9.00;;;;;;;;;;5083446;28;20052;-84
2022/03/21 12:33:30;;;;;;;15.52;8.60;;;;;;;;;;5089543;28;20048;-84
2022/03/21 12:36:20;;;;;;;17.50;10.00;;;;;;;;;;5079110;28;20503;-85
2022/03/21 12:38:49;;;;;;;15.25;9.00;;;;;;;;;;5085178;28;20069;-83
2022/03/21 12:41:33;;;;;;;14.30;8.15;;;;;;;;;;5062108;28;20084;-83
2022/03/21 12:44:02;;;;;;;15.43;8.50;;;;;;;;;;5068485;28;20512;-85
2022/03/21 12:46:31;;;;;;;14.13;8.20;;;;;;;;;;5066819;28;20048;-83
2022/03/21 12:49:03;;;;;;;16.33;8.60;;;;;;;;;;5049813;28;20052;-83
2022/03/21 12:51:35;;;;;;;15.82;9.10;;;;;;;;;;5067035;28;20044;-83
2022/03/21 12:54:24;;;;;;;12.50;7.40;;;;;;;;;;5057368;28;20051;-83
2022/03/21 12:56:54;;;;;;;16.08;7.20;;;;;;;;;;5066915;28;20048;-83
2022/03/21 12:59:23;;;;;;;15.60;8.23;;;;;;;;;;5065886;28;20048;-84
2022/03/21 13:01:51;;;;;;;15.80;8.18;;;;;;;;;;5062478;28;20055;-83
2022/03/21 13:12:44;;;;;;;13.90;7.30;;;;;;;;;;5036857;28;20087;-82
2022/03/21 13:15:13;;;;;;;13.13;7.97;;;;;;;;;;5059654;28;20478;-82
2022/03/21 13:17:45;;;;;;;13.15;7.85;;;;;;;;;;5061163;28;20051;-82
2022/03/21 13:20:15;;;;;;;12.50;7.15;;;;;;;;;;5061452;28;20041;-83
2022/03/21 13:22:45;;;;;;;15.85;7.35;;;;;;;;;;5067707;28;20040;-82
2022/03/21 13:25:27;;;;;;;13.57;7.00;;;;;;;;;;5058422;28;20052;-83
2022/03/21 13:28:13;;;;;;;14.82;6.93;;;;;;;;;;5070309;28;20551;-84
2022/03/21 13:30:58;;;;;;;14.23;7.68;;;;;;;;;;5058416;28;20064;-82
2022/03/21 13:33:28;;;;;;;13.75;7.30;;;;;;;;;;5062207;28;20054;-81
2022/03/21 13:35:59;;;;;;;13.73;8.27;;;;;;;;;;5069797;28;20087;-81
2022/03/21 13:38:30;;;;;;;15.65;7.80;;;;;;;;;;5068838;28;20510;-81
2022/03/21 13:41:00;;;;;;;15.88;8.20;;;;;;;;;;5082126;28;20074;-82
2022/03/21 13:43:29;;;;;;;11.40;7.35;;;;;;;;;;5084258;28;20051;-81
2022/03/21 13:45:58;;;;;;;11.93;7.28;;;;;;;;;;5083230;28;20056;-81
2022/03/21 13:48:38;;;;;;;14.35;8.05;;;;;;;;;;5086717;28;20480;-82
2022/03/21 13:51:22;;;;;;;12.27;6.88;;;;;;;;;;5079621;28;20048;-82
2022/03/21 13:53:55;;;;;;;14.98;7.55;;;;;;;;;;5088810;28;20469;-83
2022/03/21 13:56:31;;;;;;;11.80;7.18;;;;;;;;;;5079711;28;20098;-82
2022/03/21 13:59:09;;;;;;;14.45;7.25;;;;;;;;;;5082826;28;20036;-82
2022/03/21 14:01:41;;;;;;;13.55;7.53;;;;;;;;;;5086239;28;20502;-82
2022/03/21 14:04:20;;;;;;;12.90;8.10;;;;;;;;;;5083649;28;20044;-85
2022/03/21 14:06:56;;;;;;;16.83;7.70;;;;;;;;;;5076891;28;20101;-82
2022/03/21 14:09:24;;;;;;;;;;;;;;;;;;5076902;28;20111;-82
2022/03/21 14:12:08;;;;;;;15.73;7.70;;;;;;;;;;5083883;28;19921;-83
2022/03/21 14:14:37;;;;;;;15.38;8.10;;;;;;;;;;5086684;28;20488;-82
2022/03/21 14:17:06;;;;;;;14.55;8.25;;;;;;;;;;5085706;28;20043;-82
2022/03/21 14:19:35;;;;;;;15.15;7.95;;;;;;;;;;5087441;27;20502;-82
2022/03/21 14:22:04;;;;;;;12.95;7.53;;;;;;;;;;5080583;28;20048;-82
2022/03/21 14:24:33;;;;;;;14.07;8.43;;;;;;;;;;5091129;28;20041;-86
2022/03/21 14:27:01;;;;;;;16.20;7.65;;;;;;;;;;5085769;28;20066;-83
2022/03/21 14:29:31;;;;;;;12.88;7.30;;;;;;;;;;5088254;28;20043;-82
2022/03/21 14:32:00;;;;;;;14.45;8.05;;;;;;;;;;5087667;28;20052;-82
2022/03/21 14:34:28;;;;;;;14.98;7.93;;;;;;;;;;5091615;28;20048;-82
2022/03/21 14:37:00;;;;;;;14.48;7.35;;;;;;;;;;5094353;28;20048;-83
2022/03/21 14:39:28;;;;;;;14.07;7.93;;;;;;;;;;5082859;28;20145;-83
2022/03/21 14:41:56;;;;;;;16.67;8.45;;;;;;;;;;5086098;28;20040;-82
2022/03/21 14:44:25;;;;;;;16.60;7.57;;;;;;;;;;5084056;28;20067;-82
2022/03/21 14:46:56;;;;;;;13.07;7.85;;;;;;;;;;5086614;28;20052;-82
2022/03/21 14:49:24;;;;;;;14.73;8.40;;;;;;;;;;5084831;28;20088;-82
2022/03/21 14:51:53;;;;;;;15.90;7.45;;;;;;;;;;5092371;28;20077;-82
2022/03/21 14:54:21;;;;;;;17.80;8.35;;;;;;;;;;5083636;28;20094;-82
2022/03/21 14:56:49;;;;;;;13.40;7.80;;;;;;;;;;5090363;28;20139;-83
2022/03/21 14:59:18;;;;;;;13.82;7.50;;;;;;;;;;5083635;28;20052;-82
2022/03/21 15:01:46;;;;;;;15.50;7.18;;;;;;;;;;5080859;28;20109;-84
2022/03/21 15:04:16;;;;;;;13.98;8.00;;;;;;;;;;5095093;28;20385;-82
2022/03/21 15:06:45;;;;;;;14.88;8.10;;;;;;;;;;5079418;28;20508;-84
2022/03/21 15:09:13;;;;;;;14.00;7.65;;;;;;;;;;5083080;28;20060;-82
2022/03/21 15:11:44;;;;;;;13.10;8.07;;;;;;;;;;5087522;28;20044;-83
2022/03/21 15:14:13;;;;;;;12.20;7.50;;;;;;;;;;5084003;28;20106;-82
2022/03/21 15:16:42;;;;;;;15.15;8.43;;;;;;;;;;5084486;28;20055;-82
2022/03/21 15:19:12;;;;;;;12.07;7.47;;;;;;;;;;5087476;28;20396;-82
2022/03/21 15:21:47;;;;;;;14.48;8.15;;;;;;;;;;5086815;28;20127;-81
2022/03/21 15:24:16;;;;;;;16.52;8.30;;;;;;;;;;5085598;28;20415;-91
2022/03/21 15:26:47;;;;;;;16.40;8.95;;;;;;;;;;5090990;28;20102;-85
2022/03/21 15:29:16;;;;;;;16.02;8.93;;;;;;;;;;5085770;28;20124;-85
2022/03/21 15:31:44;;;;;;;15.25;8.85;;;;;;;;;;5080570;28;20067;-86
2022/03/21 15:34:13;;;;;;;15.27;8.43;;;;;;;;;;5088112;28;20051;-87
2022/03/21 15:42:28;;;;;;;15.75;8.48;;;;;;;;;;5083623;28;20082;-87
2022/03/21 15:44:57;;;;;;;16.67;9.15;;;;;;;;;;5081752;28;20462;-86
2022/03/21 15:47:28;;;;;;;14.05;7.85;;;;;;;;;;5084529;28;20048;-86
2022/03/21 15:49:56;;;;;;;17.60;7.95;;;;;;;;;;5078188;28;20036;-87
2022/03/21 15:52:26;;;;;;;20.02;9.45;;;;;;;;;;5087937;28;20122;-86
2022/03/21 15:54:56;;;;;;;17.52;8.48;;;;;;;;;;5086413;28;20080;-86
2022/03/21 16:00:57;;;;;;;16.02;8.70;;;;;;;;;;5090727;28;20075;-82